createdAt,value
2023-12-13T00:04:27.069Z,7.20
2023-12-13T00:09:29.199Z,7.20
2023-12-13T00:14:31.573Z,7.30
2023-12-13T00:19:33.682Z,7.20
2023-12-13T00:24:36.086Z,7.30
2023-12-13T00:29:38.445Z,7.20
2023-12-13T00:34:40.526Z,7.30
2023-12-13T00:39:43.466Z,7.30
2023-12-13T00:44:45.637Z,7.40
2023-12-13T00:49:47.793Z,7.40
2023-12-13T00:54:49.951Z,7.50
2023-12-13T00:59:52.231Z,7.50
2023-12-13T01:04:54.390Z,7.50
2023-12-13T01:09:56.618Z,7.50
2023-12-13T01:14:58.732Z,7.50
2023-12-13T01:20:02.943Z,7.50
2023-12-13T01:25:05.930Z,7.50
2023-12-13T01:30:09.880Z,7.50
2023-12-13T01:35:12.080Z,7.50
2023-12-13T01:40:14.175Z,7.40
2023-12-13T01:45:16.293Z,7.40
2023-12-13T01:50:18.380Z,7.40
2023-12-13T01:55:21.007Z,7.40
2023-12-13T02:00:23.171Z,7.40
2023-12-13T02:05:27.764Z,7.40
2023-12-13T02:10:29.961Z,7.50
2023-12-13T02:15:36.647Z,7.50
2023-12-13T02:20:38.983Z,7.50
2023-12-13T02:26:02.838Z,7.50
2023-12-13T02:31:05.160Z,7.50
2023-12-13T02:36:08.892Z,7.50
2023-12-13T02:41:11.006Z,7.50
2023-12-13T02:46:13.130Z,7.50
2023-12-13T02:51:15.189Z,7.50
2023-12-13T02:56:17.726Z,7.50
2023-12-13T03:01:19.921Z,7.50
2023-12-13T03:06:22.067Z,7.50
2023-12-13T03:11:24.466Z,7.50
2023-12-13T03:16:26.489Z,7.40
2023-12-13T03:21:28.573Z,7.40
2023-12-13T03:26:30.601Z,7.40
2023-12-13T03:31:32.692Z,7.50
2023-12-13T03:36:34.713Z,7.50
2023-12-13T03:41:36.768Z,7.50
2023-12-13T03:46:41.189Z,7.50
2023-12-13T03:51:48.572Z,7.50
2023-12-13T03:56:50.647Z,7.50
2023-12-13T04:01:52.847Z,7.60
2023-12-13T04:06:54.950Z,7.60
2023-12-13T04:11:58.322Z,7.70
2023-12-13T04:17:00.433Z,7.60
2023-12-13T04:22:02.472Z,7.50
2023-12-13T04:27:04.845Z,7.50
2023-12-13T04:32:07.776Z,7.50
2023-12-13T04:37:09.863Z,7.50
2023-12-13T04:42:11.940Z,7.60
2023-12-13T04:47:14.065Z,7.70
2023-12-13T04:52:16.871Z,7.70
2023-12-13T04:57:18.899Z,7.80
2023-12-13T05:02:20.986Z,7.90
2023-12-13T05:07:23.032Z,7.90
2023-12-13T05:12:25.120Z,7.90
2023-12-13T05:17:27.199Z,8.00
2023-12-13T05:22:29.371Z,8.00
2023-12-13T05:27:31.637Z,8.00
2023-12-13T05:32:33.790Z,8.10
2023-12-13T05:37:36.270Z,8.00
2023-12-13T05:42:38.438Z,7.90
2023-12-13T05:47:40.540Z,7.90
2023-12-13T05:52:42.710Z,8.00
2023-12-13T05:57:44.777Z,7.90
2023-12-13T06:02:55.384Z,7.90
2023-12-13T06:07:58.951Z,7.90
2023-12-13T06:13:01.560Z,7.90
2023-12-13T06:18:04.170Z,8.00
2023-12-13T06:23:06.235Z,8.00
2023-12-13T06:28:08.268Z,7.90
2023-12-13T06:33:10.379Z,7.90
2023-12-13T06:38:16.016Z,8.00
2023-12-13T06:43:18.372Z,8.00
2023-12-13T06:48:21.253Z,8.00
2023-12-13T06:53:23.667Z,8.00
2023-12-13T06:58:25.910Z,8.00
2023-12-13T07:03:28.657Z,8.10
2023-12-13T07:08:31.053Z,8.10
2023-12-13T07:13:33.294Z,8.10
2023-12-13T07:18:35.628Z,8.10
2023-12-13T07:23:38.022Z,8.20
2023-12-13T07:28:40.220Z,8.20
2023-12-13T07:33:43.445Z,8.30
2023-12-13T07:38:46.985Z,8.20
2023-12-13T07:43:50.151Z,8.10
2023-12-13T07:48:52.984Z,8.10
2023-12-13T07:53:55.241Z,8.00
2023-12-13T07:58:59.554Z,7.90
2023-12-13T08:04:03.006Z,7.90
2023-12-13T08:09:05.215Z,7.80
2023-12-13T08:14:07.546Z,8.00
2023-12-13T08:19:10.505Z,8.00
2023-12-13T08:24:13.001Z,8.00
2023-12-13T08:29:15.337Z,8.00
2023-12-13T08:34:17.665Z,8.00
2023-12-13T08:39:19.853Z,8.00
2023-12-13T08:44:23.284Z,8.00
2023-12-13T08:49:25.945Z,8.00
2023-12-13T08:54:29.242Z,7.90
2023-12-13T08:59:31.529Z,7.90
2023-12-13T09:04:34.066Z,8.00
2023-12-13T09:09:38.738Z,8.00
2023-12-13T09:14:41.533Z,8.00
2023-12-13T09:19:45.282Z,7.90
2023-12-13T09:24:47.936Z,7.90
2023-12-13T09:29:50.138Z,7.90
2023-12-13T09:34:52.417Z,7.80
2023-12-13T09:40:02.273Z,7.80
2023-12-13T09:45:07.874Z,7.90
2023-12-13T09:50:12.740Z,7.90
2023-12-13T09:55:17.145Z,7.80
2023-12-13T10:00:19.737Z,7.80
2023-12-13T10:05:23.811Z,7.80
2023-12-13T10:10:26.146Z,7.70
2023-12-13T10:15:34.296Z,7.70
2023-12-13T10:20:37.866Z,7.70
2023-12-13T10:25:41.496Z,7.60
2023-12-13T10:30:43.790Z,7.60
2023-12-13T10:35:48.383Z,7.70
2023-12-13T10:40:51.707Z,7.70
2023-12-13T10:46:01.746Z,7.90
2023-12-13T10:51:05.037Z,7.80
2023-12-13T10:56:07.761Z,7.90
2023-12-13T11:01:10.079Z,7.70
2023-12-13T11:06:17.962Z,7.60
2023-12-13T11:11:20.212Z,7.50
2023-12-13T11:16:27.169Z,7.40
2023-12-13T11:21:34.535Z,7.30
2023-12-13T11:26:43.762Z,7.30
2023-12-13T11:31:54.929Z,7.30
2023-12-13T11:36:57.793Z,7.30
2023-12-13T11:42:08.802Z,7.30
2023-12-13T11:47:13.175Z,7.30
2023-12-13T11:52:15.331Z,7.30
2023-12-13T11:57:20.021Z,7.40
2023-12-13T12:02:22.141Z,7.40
2023-12-13T12:07:24.680Z,7.40
2023-12-13T12:12:26.926Z,7.40
2023-12-13T12:17:29.139Z,7.40
2023-12-13T12:22:35.014Z,7.30
2023-12-13T12:27:37.419Z,7.40
2023-12-13T12:32:39.590Z,7.30
2023-12-13T12:37:42.241Z,7.30
2023-12-13T12:42:46.666Z,7.30
2023-12-13T12:47:48.989Z,7.30
2023-12-13T12:52:51.148Z,7.30
2023-12-13T12:57:53.254Z,7.20
2023-12-13T13:02:56.254Z,7.30
2023-12-13T13:07:59.993Z,7.20
2023-12-13T13:13:02.090Z,7.20
2023-12-13T13:18:04.276Z,7.10
2023-12-13T13:23:06.380Z,7.10
2023-12-13T13:28:08.443Z,7.20
2023-12-13T13:33:12.123Z,7.10
2023-12-13T13:38:14.432Z,7.10
2023-12-13T13:43:16.811Z,7.00
2023-12-13T13:48:19.612Z,7.00
2023-12-13T13:53:21.811Z,6.90
2023-12-13T13:58:23.931Z,6.90
2023-12-13T14:03:26.283Z,6.90
2023-12-13T14:08:28.645Z,7.10
2023-12-13T14:13:30.733Z,7.00
2023-12-13T14:18:34.107Z,6.90
2023-12-13T14:23:36.185Z,6.90
2023-12-13T14:28:38.497Z,6.80
2023-12-13T14:33:40.667Z,6.70
2023-12-13T14:38:42.780Z,6.60
2023-12-13T14:43:45.114Z,6.50
2023-12-13T14:48:48.607Z,6.50
2023-12-13T14:53:51.780Z,6.40
2023-12-13T14:58:53.813Z,6.40
2023-12-13T15:03:55.876Z,6.40
2023-12-13T15:08:59.248Z,6.40
2023-12-13T15:14:01.497Z,6.40
2023-12-13T15:19:07.558Z,6.30
2023-12-13T15:24:10.251Z,6.40
2023-12-13T15:29:12.364Z,6.30
2023-12-13T15:34:16.467Z,6.30
2023-12-13T15:39:18.726Z,6.20
2023-12-13T15:44:20.898Z,6.20
2023-12-13T15:49:23.033Z,6.30
2023-12-13T15:54:25.225Z,6.30
2023-12-13T15:59:29.137Z,6.20
2023-12-13T16:04:31.748Z,6.20
2023-12-13T16:09:34.777Z,6.20
2023-12-13T16:14:37.000Z,6.10
2023-12-13T16:19:39.753Z,6.20
2023-12-13T16:24:41.862Z,6.10
2023-12-13T16:29:45.194Z,6.00
2023-12-13T16:34:47.283Z,6.10
2023-12-13T16:39:49.344Z,6.30
2023-12-13T16:44:51.387Z,6.20
2023-12-13T16:49:53.453Z,6.10
2023-12-13T16:54:56.880Z,6.10
2023-12-13T16:59:58.946Z,6.00
2023-12-13T17:05:01.095Z,6.00
2023-12-13T17:10:03.906Z,6.00
2023-12-13T17:15:06.626Z,5.90
2023-12-13T17:20:11.509Z,5.90
2023-12-13T17:25:17.867Z,5.80
2023-12-13T17:30:20.109Z,5.80
2023-12-13T17:35:22.300Z,5.70
2023-12-13T17:40:24.478Z,5.70
2023-12-13T17:45:30.178Z,5.70
2023-12-13T17:50:32.444Z,5.70
2023-12-13T17:55:36.503Z,5.70
2023-12-13T18:00:38.806Z,5.60
2023-12-13T18:05:40.963Z,5.60
2023-12-13T18:10:43.311Z,5.70
2023-12-13T18:15:45.429Z,5.60
2023-12-13T18:20:47.565Z,5.60
2023-12-13T18:25:53.422Z,5.60
2023-12-13T18:30:56.468Z,5.50
2023-12-13T18:35:58.850Z,5.60
2023-12-13T18:41:01.735Z,5.50
2023-12-13T18:46:03.981Z,5.60
2023-12-13T18:51:06.800Z,5.60
2023-12-13T18:56:09.286Z,5.60
2023-12-13T19:01:11.600Z,5.50
2023-12-13T19:06:13.841Z,5.50
2023-12-13T19:11:17.697Z,5.50
2023-12-13T19:16:20.129Z,5.50
2023-12-13T19:21:22.328Z,5.40
2023-12-13T19:26:24.628Z,5.40
2023-12-13T19:31:28.193Z,5.40
2023-12-13T19:36:30.440Z,5.40
2023-12-13T19:41:33.476Z,5.40
2023-12-13T19:46:36.752Z,5.40
2023-12-13T19:51:39.016Z,5.50
2023-12-13T19:56:41.396Z,5.70
2023-12-13T20:01:43.513Z,5.60
2023-12-13T20:06:46.518Z,5.50
2023-12-13T20:11:49.388Z,5.50
2023-12-13T20:16:51.637Z,5.50
2023-12-13T20:21:53.967Z,5.40
2023-12-13T20:26:56.028Z,5.50
2023-12-13T20:31:58.359Z,5.40
2023-12-13T20:37:00.618Z,5.30
2023-12-13T20:42:02.862Z,5.30
2023-12-13T20:47:05.255Z,5.30
2023-12-13T20:52:08.006Z,5.30
2023-12-13T20:57:12.549Z,5.30
2023-12-13T21:02:14.784Z,5.20
2023-12-13T21:07:17.537Z,5.30
2023-12-13T21:12:20.018Z,5.30
2023-12-13T21:17:22.435Z,5.30
2023-12-13T21:22:25.654Z,5.30
2023-12-13T21:27:30.768Z,5.30
2023-12-13T21:32:33.624Z,5.30
2023-12-13T21:37:36.373Z,5.30
2023-12-13T21:42:38.717Z,5.30
2023-12-13T21:47:41.124Z,5.20
2023-12-13T21:52:44.669Z,5.20
2023-12-13T21:57:47.923Z,5.20
2023-12-13T22:02:50.005Z,5.20
2023-12-13T22:07:52.114Z,5.20
2023-12-13T22:12:54.392Z,5.20
2023-12-13T22:17:56.797Z,5.20
2023-12-13T22:22:59.066Z,5.20
2023-12-13T22:28:01.281Z,5.20
2023-12-13T22:33:03.552Z,5.10
2023-12-13T22:38:06.849Z,5.20
2023-12-13T22:43:08.967Z,5.20
2023-12-13T22:48:11.201Z,5.30
2023-12-13T22:53:15.861Z,5.30
2023-12-13T22:58:18.113Z,5.30
2023-12-13T23:03:20.297Z,5.30
2023-12-13T23:08:22.356Z,5.30
2023-12-13T23:13:24.573Z,5.20
2023-12-13T23:18:26.721Z,5.30
2023-12-13T23:23:28.869Z,5.20
2023-12-13T23:28:30.954Z,5.00
2023-12-13T23:33:33.130Z,5.10
2023-12-13T23:38:38.709Z,5.20
2023-12-13T23:43:40.843Z,5.10
2023-12-13T23:48:43.044Z,5.10
2023-12-13T23:53:45.210Z,5.00
2023-12-13T23:58:47.429Z,5.00
